createdAt,value
2023-10-11T00:00:27.502Z,0.40
2023-10-11T00:02:25.621Z,0.30
2023-10-11T00:04:26.581Z,0.32
2023-10-11T00:06:25.836Z,0.90
2023-10-11T00:08:27.627Z,0.00
2023-10-11T00:10:24.905Z,0.00
2023-10-11T00:12:23.331Z,0.38
2023-10-11T00:14:21.597Z,0.52
2023-10-11T00:16:18.602Z,0.00
2023-10-11T00:18:18.415Z,0.00
2023-10-11T00:20:21.077Z,0.63
2023-10-11T00:22:19.063Z,0.10
2023-10-11T00:24:18.825Z,0.10
2023-10-11T00:26:18.739Z,0.63
2023-10-11T00:28:27.848Z,0.25
2023-10-11T00:30:25.173Z,0.25
2023-10-11T00:32:23.293Z,0.40
2023-10-11T00:34:21.554Z,0.08
2023-10-11T00:36:25.478Z,0.30
2023-10-11T00:38:28.469Z,0.15
2023-10-11T00:40:28.196Z,0.10
2023-10-11T00:42:29.046Z,0.43
2023-10-11T00:44:30.710Z,0.25
2023-10-11T00:46:29.659Z,0.30
2023-10-11T00:48:30.684Z,0.20
2023-10-11T00:50:31.860Z,0.73
2023-10-11T00:52:28.857Z,0.65
2023-10-11T00:54:28.559Z,0.43
2023-10-11T00:56:33.297Z,0.57
2023-10-11T00:58:31.997Z,0.20
2023-10-11T01:00:37.023Z,0.00
2023-10-11T01:02:37.100Z,0.50
2023-10-11T01:04:39.001Z,0.57
2023-10-11T01:06:37.245Z,0.40
2023-10-11T01:08:39.856Z,0.25
2023-10-11T01:10:38.001Z,0.17
2023-10-11T01:12:37.380Z,0.35
2023-10-11T01:14:46.511Z,0.15
2023-10-11T01:16:44.813Z,0.38
2023-10-11T01:18:43.802Z,0.45
2023-10-11T01:20:43.284Z,0.00
2023-10-11T01:22:42.417Z,0.80
2023-10-11T01:24:42.573Z,0.25
2023-10-11T01:26:40.899Z,1.00
2023-10-11T01:28:38.642Z,0.13
2023-10-11T01:30:36.909Z,0.63
2023-10-11T01:32:35.679Z,0.45
2023-10-11T01:34:33.852Z,0.90
2023-10-11T01:36:33.339Z,0.55
2023-10-11T01:38:33.896Z,1.05
2023-10-11T01:40:34.068Z,1.10
2023-10-11T01:42:32.797Z,0.10
2023-10-11T01:44:31.605Z,0.30
2023-10-11T01:46:29.753Z,0.55
2023-10-11T01:48:27.828Z,0.30
2023-10-11T01:50:26.492Z,0.22
2023-10-11T01:52:27.254Z,0.35
2023-10-11T01:54:26.147Z,0.47
2023-10-11T01:56:25.416Z,0.60
2023-10-11T01:58:23.417Z,0.08
2023-10-11T02:00:28.121Z,0.10
2023-10-11T02:02:28.983Z,0.00
2023-10-11T02:04:26.862Z,0.00
2023-10-11T02:06:25.643Z,0.30
2023-10-11T02:08:26.458Z,0.30
2023-10-11T02:10:28.041Z,0.10
2023-10-11T02:12:27.009Z,0.52
2023-10-11T02:14:25.260Z,0.32
2023-10-11T02:16:23.529Z,0.32
2023-10-11T02:18:21.056Z,0.32
2023-10-11T02:20:23.186Z,0.10
2023-10-11T02:22:24.113Z,0.17
2023-10-11T02:24:26.595Z,0.10
2023-10-11T02:26:29.396Z,0.65
2023-10-11T02:28:28.791Z,0.65
2023-10-11T02:30:26.746Z,0.20
2023-10-11T02:32:33.133Z,0.00
2023-10-11T02:34:32.881Z,0.52
2023-10-11T02:36:35.956Z,0.38
2023-10-11T02:38:39.993Z,0.20
2023-10-11T02:40:39.986Z,0.75
2023-10-11T02:42:37.795Z,0.60
2023-10-11T02:44:41.712Z,0.55
2023-10-11T02:46:43.399Z,0.10
2023-10-11T02:48:47.315Z,0.20
2023-10-11T02:50:47.403Z,0.05
2023-10-11T02:52:46.109Z,0.22
2023-10-11T02:54:44.127Z,0.10
2023-10-11T02:56:48.133Z,0.77
2023-10-11T02:58:47.931Z,0.10
2023-10-11T03:00:45.302Z,0.10
2023-10-11T03:02:46.689Z,0.20
2023-10-11T03:04:44.928Z,0.10
2023-10-11T03:06:50.776Z,0.20
2023-10-11T03:08:52.810Z,0.68
2023-10-11T03:10:55.426Z,0.60
2023-10-11T03:12:54.910Z,0.38
2023-10-11T03:14:56.387Z,0.08
2023-10-11T03:17:00.131Z,0.88
2023-10-11T03:19:00.446Z,0.10
2023-10-11T03:21:08.857Z,0.52
2023-10-11T03:23:12.334Z,0.25
2023-10-11T03:25:20.022Z,0.10
2023-10-11T03:27:17.890Z,0.28
2023-10-11T03:29:22.754Z,0.10
2023-10-11T03:31:20.922Z,0.25
2023-10-11T03:33:19.139Z,0.45
2023-10-11T03:35:20.364Z,0.13
2023-10-11T03:37:20.196Z,0.13
2023-10-11T03:39:28.204Z,0.00
2023-10-11T03:41:29.457Z,0.47
2023-10-11T03:43:28.252Z,0.35
2023-10-11T03:45:29.529Z,0.10
2023-10-11T03:47:32.369Z,0.13
2023-10-11T03:49:48.800Z,0.30
2023-10-11T03:51:49.500Z,0.10
2023-10-11T03:53:49.143Z,0.00
2023-10-11T03:55:48.672Z,0.22
2023-10-11T03:57:47.476Z,0.55
2023-10-11T03:59:49.619Z,0.52
2023-10-11T04:01:49.379Z,0.20
2023-10-11T04:03:46.442Z,0.57
2023-10-11T04:05:46.305Z,0.13
2023-10-11T04:07:44.330Z,0.63
2023-10-11T04:09:41.185Z,0.88
2023-10-11T04:11:52.110Z,0.28
2023-10-11T04:13:50.626Z,0.90
2023-10-11T04:15:50.698Z,0.03
2023-10-11T04:17:51.242Z,0.43
2023-10-11T04:19:49.149Z,0.10
2023-10-11T04:21:56.449Z,0.13
2023-10-11T04:23:57.855Z,0.50
2023-10-11T04:25:56.798Z,0.17
2023-10-11T04:27:56.811Z,0.17
2023-10-11T04:29:55.033Z,0.60
2023-10-11T04:32:11.372Z,0.17
2023-10-11T04:34:12.773Z,0.43
2023-10-11T04:36:10.724Z,0.57
2023-10-11T04:38:08.842Z,0.20
2023-10-11T04:40:25.192Z,0.20
2023-10-11T04:42:22.292Z,0.77
2023-10-11T04:44:20.527Z,0.08
2023-10-11T04:46:19.618Z,0.68
2023-10-11T04:48:20.233Z,0.10
2023-10-11T04:50:18.787Z,0.40
2023-10-11T04:52:24.477Z,0.57
2023-10-11T04:54:23.087Z,0.52
2023-10-11T04:56:34.923Z,0.65
2023-10-11T04:58:43.967Z,0.10
2023-10-11T05:00:45.712Z,0.70
2023-10-11T05:02:45.597Z,0.25
2023-10-11T05:04:45.416Z,0.00
2023-10-11T05:06:45.218Z,0.00
2023-10-11T05:08:53.390Z,0.22
2023-10-11T05:10:54.395Z,0.28
2023-10-11T05:12:59.544Z,0.57
2023-10-11T05:15:04.798Z,0.08
2023-10-11T05:17:18.209Z,0.20
2023-10-11T05:19:21.964Z,0.30
2023-10-11T05:21:28.107Z,0.43
2023-10-11T05:23:43.360Z,0.10
2023-10-11T05:25:46.786Z,0.00
2023-10-11T05:27:51.146Z,0.88
2023-10-11T05:32:21.450Z,0.10
2023-10-11T05:34:30.928Z,0.05
2023-10-11T05:37:10.714Z,0.77
2023-10-11T05:39:28.061Z,0.00
2023-10-11T05:41:43.369Z,0.10
2023-10-11T05:43:58.729Z,0.20
2023-10-11T05:46:14.289Z,0.00
2023-10-11T05:48:30.030Z,0.15
2023-10-11T05:50:45.389Z,0.22
2023-10-11T05:52:43.425Z,0.32
2023-10-11T05:54:42.878Z,1.30
2023-10-11T05:56:46.940Z,0.43
2023-10-11T05:58:45.216Z,0.20
2023-10-11T06:00:48.781Z,1.40
2023-10-11T06:02:48.853Z,10.73
2023-10-11T06:04:47.748Z,10.02
2023-10-11T06:06:48.168Z,11.88
2023-10-11T06:08:47.827Z,4.47
2023-10-11T06:10:48.000Z,0.77
2023-10-11T06:12:46.843Z,0.10
2023-10-11T06:14:48.084Z,0.30
2023-10-11T06:16:50.735Z,0.03
2023-10-11T06:19:17.523Z,0.85
2023-10-11T06:21:29.562Z,0.25
2023-10-11T06:23:27.431Z,0.13
2023-10-11T06:25:45.753Z,0.75
2023-10-11T06:28:10.526Z,0.40
2023-10-11T06:30:11.411Z,0.08
2023-10-11T06:32:20.623Z,3.93
2023-10-11T06:34:24.416Z,3.83
2023-10-11T06:36:21.484Z,3.90
2023-10-11T06:38:19.507Z,1.60
2023-10-11T06:40:16.988Z,0.30
2023-10-11T06:42:19.373Z,0.37
2023-10-11T06:44:19.766Z,0.20
2023-10-11T06:46:18.012Z,0.10
2023-10-11T06:48:16.050Z,0.20
2023-10-11T06:50:13.616Z,0.00
2023-10-11T06:52:12.876Z,0.00
2023-10-11T06:54:11.063Z,0.03
2023-10-11T06:56:09.622Z,0.57
2023-10-11T06:58:11.145Z,0.10
2023-10-11T07:00:13.921Z,0.10
2023-10-11T07:02:19.181Z,0.47
2023-10-11T07:04:19.747Z,1.60
2023-10-11T07:06:23.754Z,0.80
2023-10-11T07:08:22.214Z,0.10
2023-10-11T07:10:29.904Z,0.17
2023-10-11T07:12:40.500Z,0.10
2023-10-11T07:14:42.313Z,0.00
2023-10-11T07:16:43.443Z,0.10
2023-10-11T07:18:44.913Z,0.10
2023-10-11T07:20:49.341Z,0.00
2023-10-11T07:22:47.599Z,0.30
2023-10-11T07:24:45.554Z,2.33
2023-10-11T07:26:57.460Z,5.37
2023-10-11T07:28:55.882Z,10.03
2023-10-11T07:30:52.839Z,9.00
2023-10-11T07:32:52.330Z,1.97
2023-10-11T07:34:49.957Z,2.17
2023-10-11T07:36:50.287Z,0.77
2023-10-11T07:38:47.875Z,0.40
2023-10-11T07:40:54.124Z,0.27
2023-10-11T07:42:56.335Z,0.00
2023-10-11T07:44:54.317Z,3.70
2023-10-11T07:46:56.123Z,16.60
2023-10-11T07:49:03.113Z,1.83
2023-10-11T07:51:00.733Z,1.47
2023-10-11T07:53:01.174Z,0.20
2023-10-11T07:54:59.133Z,1.03
2023-10-11T07:56:59.993Z,0.13
2023-10-11T07:58:59.256Z,0.10
2023-10-11T08:00:56.384Z,0.33
2023-10-11T08:03:05.048Z,0.20
2023-10-11T08:05:13.672Z,0.20
2023-10-11T08:07:18.085Z,0.67
2023-10-11T08:09:21.043Z,0.13
2023-10-11T08:11:21.986Z,0.00
2023-10-11T08:13:25.308Z,0.40
2023-10-11T08:15:23.847Z,2.42
2023-10-11T08:17:25.302Z,3.80
2023-10-11T08:19:23.774Z,6.53
2023-10-11T08:21:23.373Z,1.80
2023-10-11T08:23:30.590Z,1.20
2023-10-11T08:25:30.363Z,0.30
2023-10-11T08:27:30.826Z,2.50
2023-10-11T08:29:32.423Z,0.40
2023-10-11T08:31:36.420Z,0.10
2023-10-11T08:33:35.045Z,0.73
2023-10-11T08:35:33.144Z,0.00
2023-10-11T08:37:33.298Z,0.27
2023-10-11T08:39:42.836Z,0.00
2023-10-11T08:41:45.171Z,0.20
2023-10-11T08:43:44.018Z,0.70
2023-10-11T08:45:48.481Z,0.20
2023-10-11T08:47:46.561Z,0.10
2023-10-11T08:49:49.765Z,0.40
2023-10-11T08:51:49.470Z,0.25
2023-10-11T08:53:49.010Z,1.73
2023-10-11T08:55:48.927Z,0.40
2023-10-11T08:57:48.486Z,0.23
2023-10-11T08:59:51.736Z,0.20
2023-10-11T09:01:50.048Z,0.00
2023-10-11T09:04:02.091Z,0.10
2023-10-11T09:06:03.905Z,1.10
2023-10-11T09:08:03.464Z,0.10
2023-10-11T09:10:07.029Z,0.53
2023-10-11T09:12:24.666Z,0.47
2023-10-11T09:14:25.158Z,0.20
2023-10-11T09:16:35.934Z,0.00
2023-10-11T09:18:36.369Z,0.13
2023-10-11T09:20:41.792Z,0.00
2023-10-11T09:22:47.349Z,1.33
2023-10-11T09:24:46.673Z,0.00
2023-10-11T09:26:45.264Z,0.20
2023-10-11T09:28:48.535Z,0.00
2023-10-11T09:30:46.102Z,0.00
2023-10-11T09:32:49.791Z,0.20
2023-10-11T09:34:48.295Z,0.30
2023-10-11T09:36:48.565Z,0.20
2023-10-11T09:38:48.197Z,0.10
2023-10-11T09:40:46.262Z,0.53
2023-10-11T09:42:46.138Z,0.43
2023-10-11T09:44:47.151Z,0.00
2023-10-11T09:46:45.351Z,0.20
2023-10-11T09:48:44.142Z,0.30
2023-10-11T09:50:43.055Z,0.10
2023-10-11T09:52:46.869Z,0.00
2023-10-11T09:56:50.012Z,0.10
2023-10-11T09:58:55.246Z,0.30
2023-10-11T10:01:01.093Z,0.20
2023-10-11T10:02:59.228Z,0.30
2023-10-11T10:04:57.128Z,0.30
2023-10-11T10:07:09.997Z,0.00
2023-10-11T10:09:26.235Z,0.40
2023-10-11T10:11:25.244Z,0.10
2023-10-11T10:13:25.987Z,0.00
2023-10-11T10:15:28.094Z,0.10
2023-10-11T10:17:25.131Z,0.20
2023-10-11T10:19:26.489Z,0.10
2023-10-11T10:21:24.655Z,0.20
2023-10-11T10:23:31.522Z,0.00
2023-10-11T10:25:31.994Z,0.52
2023-10-11T10:27:40.144Z,0.10
2023-10-11T10:29:51.902Z,0.20
2023-10-11T10:32:10.239Z,0.17
2023-10-11T10:34:22.953Z,0.17
2023-10-11T10:36:39.512Z,0.10
2023-10-11T10:38:52.586Z,0.00
2023-10-11T10:41:19.964Z,0.20
2023-10-11T10:43:29.343Z,0.57
2023-10-11T10:45:26.819Z,0.70
2023-10-11T10:47:33.218Z,0.17
2023-10-11T10:49:42.696Z,0.10
2023-10-11T10:51:48.531Z,0.00
2023-10-11T10:53:52.255Z,0.00
2023-10-11T10:57:52.764Z,0.40
2023-10-11T10:59:50.948Z,0.20
2023-10-11T11:01:48.675Z,0.00
2023-10-11T11:03:48.688Z,0.37
2023-10-11T11:05:57.522Z,0.00
2023-10-11T11:07:59.659Z,0.10
2023-10-11T11:09:56.465Z,0.10
2023-10-11T11:11:56.472Z,0.07
2023-10-11T11:13:56.063Z,0.10
2023-10-11T11:15:56.725Z,0.00
2023-10-11T11:17:54.751Z,0.10
2023-10-11T11:20:15.029Z,1.30
2023-10-11T11:22:13.419Z,1.17
2023-10-11T11:24:19.684Z,0.20
2023-10-11T11:26:31.288Z,7.50
2023-10-11T11:28:40.483Z,2.77
2023-10-11T11:30:38.225Z,0.33
2023-10-11T11:32:39.753Z,0.07
2023-10-11T11:34:38.803Z,0.43
2023-10-11T11:36:41.764Z,4.17
2023-10-11T11:38:39.329Z,2.33
2023-10-11T11:40:38.950Z,0.67
2023-10-11T11:42:36.016Z,4.70
2023-10-11T11:44:34.100Z,4.50
2023-10-11T11:46:31.541Z,0.17
2023-10-11T11:48:29.506Z,0.30
2023-10-11T11:50:27.184Z,0.73
2023-10-11T11:52:29.284Z,0.30
2023-10-11T11:54:30.116Z,0.47
2023-10-11T11:56:29.465Z,0.10
2023-10-11T11:58:27.746Z,0.10
2023-10-11T12:00:40.832Z,3.03
2023-10-11T12:02:42.071Z,1.47
2023-10-11T12:04:42.721Z,0.80
2023-10-11T12:06:39.909Z,7.13
2023-10-11T12:08:39.298Z,0.40
2023-10-11T12:10:36.981Z,0.10
2023-10-11T12:12:36.935Z,1.20
2023-10-11T12:14:38.414Z,0.40
2023-10-11T12:16:43.013Z,0.20
2023-10-11T12:18:40.921Z,0.00
2023-10-11T12:20:39.161Z,0.10
2023-10-11T12:22:37.139Z,0.23
2023-10-11T12:24:45.662Z,0.10
2023-10-11T12:26:44.934Z,0.00
2023-10-11T12:28:43.094Z,0.00
2023-10-11T12:30:46.063Z,0.20
2023-10-11T12:32:45.363Z,0.15
2023-10-11T12:34:43.397Z,0.10
2023-10-11T12:36:43.382Z,0.10
2023-10-11T12:38:41.495Z,0.20
2023-10-11T12:40:40.909Z,0.00
2023-10-11T12:42:38.940Z,0.23
2023-10-11T12:44:37.089Z,0.20
2023-10-11T12:46:35.306Z,0.00
2023-10-11T12:48:38.360Z,0.70
2023-10-11T12:50:38.391Z,1.33
2023-10-11T12:52:39.498Z,2.37
2023-10-11T12:54:37.728Z,1.77
2023-10-11T12:56:37.053Z,0.00
2023-10-11T12:58:41.437Z,0.00
2023-10-11T13:00:41.289Z,0.10
2023-10-11T13:02:49.317Z,0.00
2023-10-11T13:04:48.607Z,0.00
2023-10-11T13:06:51.018Z,0.30
2023-10-11T13:08:51.196Z,0.10
2023-10-11T13:10:52.175Z,0.30
2023-10-11T13:12:51.783Z,0.00
2023-10-11T13:14:52.418Z,0.13
2023-10-11T13:16:52.889Z,0.63
2023-10-11T13:18:50.161Z,0.00
2023-10-11T13:20:48.244Z,0.20
2023-10-11T13:22:46.234Z,3.30
2023-10-11T13:24:44.244Z,1.73
2023-10-11T13:26:45.008Z,0.03
2023-10-11T13:28:49.419Z,0.10
2023-10-11T13:30:48.759Z,0.10
2023-10-11T13:32:47.117Z,0.10
2023-10-11T13:34:45.208Z,0.00
2023-10-11T13:36:43.382Z,0.07
2023-10-11T13:38:46.602Z,0.10
2023-10-11T13:40:45.314Z,0.22
2023-10-11T13:42:44.362Z,0.20
2023-10-11T13:45:01.187Z,0.00
2023-10-11T13:47:18.337Z,0.00
2023-10-11T13:49:25.807Z,0.00
2023-10-11T13:51:32.391Z,0.00
2023-10-11T13:53:33.543Z,0.00
2023-10-11T13:55:41.085Z,0.10
2023-10-11T13:57:42.395Z,0.00
2023-10-11T13:59:49.745Z,0.10
2023-10-11T14:02:00.823Z,0.00
2023-10-11T14:04:07.220Z,0.43
2023-10-11T14:06:22.461Z,0.00
2023-10-11T14:08:25.805Z,0.00
2023-10-11T14:10:28.602Z,7.28
2023-10-11T14:12:30.430Z,0.35
2023-10-11T14:14:34.278Z,0.93
2023-10-11T14:16:33.352Z,0.98
2023-10-11T14:18:34.031Z,0.10
2023-10-11T14:20:33.382Z,0.43
2023-10-11T14:22:33.735Z,0.10
2023-10-11T14:24:31.858Z,0.10
2023-10-11T14:26:30.508Z,0.10
2023-10-11T14:28:31.423Z,0.53
2023-10-11T14:30:29.723Z,0.00
2023-10-11T14:32:27.882Z,0.00
2023-10-11T14:34:25.990Z,0.00
2023-10-11T14:36:27.874Z,0.00
2023-10-11T14:39:16.795Z,0.13
2023-10-11T14:44:54.983Z,0.30
2023-10-11T14:46:53.653Z,0.00
2023-10-11T14:48:52.675Z,0.07
2023-10-11T14:50:49.672Z,0.87
2023-10-11T14:52:49.817Z,0.00
2023-10-11T14:54:49.765Z,0.17
2023-10-11T14:56:47.795Z,0.30
2023-10-11T14:58:46.667Z,0.00
2023-10-11T15:00:47.534Z,0.93
2023-10-11T15:02:45.970Z,0.30
2023-10-11T15:04:47.136Z,0.20
2023-10-11T15:06:47.188Z,0.10
2023-10-11T15:08:46.837Z,0.00
2023-10-11T15:10:45.374Z,0.00
2023-10-11T15:12:44.215Z,0.00
2023-10-11T15:14:42.333Z,0.00
2023-10-11T15:16:40.412Z,0.00
2023-10-11T15:18:37.545Z,0.20
2023-10-11T15:20:35.715Z,0.10
2023-10-11T15:22:33.708Z,0.00
2023-10-11T15:24:33.225Z,0.23
2023-10-11T15:26:34.298Z,0.20
2023-10-11T15:28:32.420Z,0.10
2023-10-11T15:30:32.451Z,0.00
2023-10-11T15:32:30.421Z,0.03
2023-10-11T15:34:28.500Z,0.07
2023-10-11T15:36:31.705Z,0.23
2023-10-11T15:38:35.170Z,0.00
2023-10-11T15:40:34.649Z,0.00
2023-10-11T15:42:34.227Z,0.00
2023-10-11T15:44:32.386Z,0.20
2023-10-11T15:46:30.401Z,0.10
2023-10-11T15:48:27.421Z,0.00
2023-10-11T15:50:26.883Z,0.10
2023-10-11T15:52:25.109Z,0.20
2023-10-11T15:54:25.034Z,0.10
2023-10-11T15:56:24.395Z,0.10
2023-10-11T15:58:22.435Z,0.00
2023-10-11T16:00:21.724Z,0.20
2023-10-11T16:02:19.949Z,0.23
2023-10-11T16:04:18.325Z,0.17
2023-10-11T16:06:16.738Z,0.97
2023-10-11T16:08:15.347Z,0.00
2023-10-11T16:10:13.534Z,0.00
2023-10-11T16:12:13.603Z,0.00
2023-10-11T16:14:11.878Z,0.10
2023-10-11T16:16:09.313Z,0.17
2023-10-11T16:18:10.607Z,0.30
2023-10-11T16:20:09.991Z,0.23
2023-10-11T16:22:09.783Z,0.10
2023-10-11T16:24:12.813Z,1.43
2023-10-11T16:26:13.545Z,0.20
2023-10-11T16:28:12.766Z,5.00
2023-10-11T16:30:12.979Z,6.07
2023-10-11T16:32:11.054Z,0.00
2023-10-11T16:34:12.059Z,0.40
2023-10-11T16:36:10.267Z,0.00
2023-10-11T16:38:08.423Z,0.00
2023-10-11T16:40:06.507Z,0.00
2023-10-11T16:42:06.728Z,0.17
2023-10-11T16:44:07.522Z,0.50
2023-10-11T16:46:13.498Z,0.00
2023-10-11T16:48:22.118Z,0.43
2023-10-11T16:50:20.382Z,0.00
2023-10-11T16:52:27.741Z,0.20
2023-10-11T16:54:29.077Z,0.30
2023-10-11T16:56:27.234Z,0.73
2023-10-11T16:58:35.640Z,0.30
2023-10-11T17:00:35.432Z,0.00
2023-10-11T17:02:32.634Z,5.63
2023-10-11T17:04:42.450Z,0.30
2023-10-11T17:06:40.950Z,0.87
2023-10-11T17:08:39.693Z,0.13
2023-10-11T17:10:37.802Z,0.00
2023-10-11T17:12:46.027Z,0.67
2023-10-11T17:14:44.718Z,0.40
2023-10-11T17:16:51.826Z,0.40
2023-10-11T17:18:50.868Z,0.63
2023-10-11T17:20:49.085Z,0.10
2023-10-11T17:22:49.189Z,0.57
2023-10-11T17:24:51.422Z,0.10
2023-10-11T17:26:49.894Z,0.03
2023-10-11T17:28:56.001Z,0.03
2023-10-11T17:30:54.690Z,0.10
2023-10-11T17:32:58.743Z,0.40
2023-10-11T17:35:01.446Z,0.63
2023-10-11T17:37:03.299Z,0.10
2023-10-11T17:39:19.831Z,0.30
2023-10-11T17:41:20.417Z,2.30
2023-10-11T17:43:23.099Z,0.87
2023-10-11T17:45:24.633Z,1.00
2023-10-11T17:47:22.855Z,0.60
2023-10-11T17:49:25.145Z,0.38
2023-10-11T17:51:23.596Z,1.05
2023-10-11T17:53:24.875Z,0.10
2023-10-11T17:55:27.459Z,0.28
2023-10-11T17:57:26.005Z,0.15
2023-10-11T17:59:24.219Z,0.00
2023-10-11T18:01:22.944Z,0.75
2023-10-11T18:03:26.262Z,0.68
2023-10-11T18:05:29.153Z,0.63
2023-10-11T18:07:26.352Z,0.73
2023-10-11T18:09:24.964Z,0.63
2023-10-11T18:11:23.700Z,0.17
2023-10-11T18:13:21.950Z,0.20
2023-10-11T18:15:23.666Z,0.52
2023-10-11T18:17:21.186Z,0.20
2023-10-11T18:19:23.856Z,0.30
2023-10-11T18:21:23.670Z,0.15
2023-10-11T18:23:24.061Z,0.13
2023-10-11T18:25:21.550Z,0.32
2023-10-11T18:27:22.907Z,0.38
2023-10-11T18:29:21.321Z,0.40
2023-10-11T18:31:18.690Z,0.00
2023-10-11T18:33:16.727Z,0.22
2023-10-11T18:35:13.841Z,0.47
2023-10-11T18:37:17.544Z,0.22
2023-10-11T18:39:19.656Z,0.30
2023-10-11T18:41:18.001Z,0.20
2023-10-11T18:43:18.294Z,0.38
2023-10-11T18:45:18.068Z,0.73
2023-10-11T18:47:16.145Z,0.55
2023-10-11T18:49:16.406Z,0.30
2023-10-11T18:51:17.500Z,0.63
2023-10-11T18:53:16.030Z,0.20
2023-10-11T18:55:14.580Z,0.30
2023-10-11T18:57:12.735Z,0.35
2023-10-11T18:59:09.782Z,0.20
2023-10-11T19:01:08.158Z,3.08
2023-10-11T19:03:08.635Z,3.67
2023-10-11T19:05:07.557Z,2.63
2023-10-11T19:07:06.791Z,3.17
2023-10-11T19:09:07.910Z,0.55
2023-10-11T19:11:09.516Z,1.10
2023-10-11T19:13:09.837Z,0.10
2023-10-11T19:15:08.355Z,0.75
2023-10-11T19:17:06.971Z,0.20
2023-10-11T19:19:05.738Z,0.10
2023-10-11T19:21:06.041Z,0.30
2023-10-11T19:23:05.457Z,0.20
2023-10-11T19:25:06.552Z,0.20
2023-10-11T19:27:04.817Z,0.00
2023-10-11T19:29:03.070Z,0.22
2023-10-11T19:31:01.051Z,0.30
2023-10-11T19:32:58.397Z,0.50
2023-10-11T19:35:00.273Z,0.38
2023-10-11T19:36:58.454Z,0.00
2023-10-11T19:38:56.846Z,0.20
2023-10-11T19:41:01.884Z,0.40
2023-10-11T19:43:02.307Z,0.75
2023-10-11T19:44:59.230Z,0.28
2023-10-11T19:47:00.339Z,0.88
2023-10-11T19:48:58.562Z,0.68
2023-10-11T19:50:57.230Z,0.43
2023-10-11T19:52:56.705Z,0.13
2023-10-11T19:54:54.642Z,0.35
2023-10-11T19:56:54.332Z,0.00
2023-10-11T19:58:52.474Z,0.20
2023-10-11T20:00:50.439Z,0.75
2023-10-11T20:02:48.870Z,0.20
2023-10-11T20:04:47.718Z,0.50
2023-10-11T20:06:45.901Z,6.13
2023-10-11T20:08:43.990Z,4.05
2023-10-11T20:10:42.131Z,5.20
2023-10-11T20:12:40.748Z,4.55
2023-10-11T20:14:38.845Z,4.90
2023-10-11T20:16:36.917Z,2.90
2023-10-11T20:18:38.348Z,1.10
2023-10-11T20:20:37.817Z,0.90
2023-10-11T20:22:37.159Z,0.10
2023-10-11T20:24:38.381Z,0.40
2023-10-11T20:26:36.432Z,0.65
2023-10-11T20:28:35.997Z,0.30
2023-10-11T20:30:36.321Z,0.45
2023-10-11T20:32:34.487Z,0.70
2023-10-11T20:34:32.628Z,0.20
2023-10-11T20:36:33.985Z,0.00
2023-10-11T20:38:31.948Z,0.47
2023-10-11T20:40:30.460Z,0.05
2023-10-11T20:42:28.452Z,0.15
2023-10-11T20:44:27.912Z,0.30
2023-10-11T20:46:25.958Z,0.17
2023-10-11T20:48:23.922Z,0.50
2023-10-11T20:50:23.128Z,0.15
2023-10-11T20:52:21.137Z,0.70
2023-10-11T20:54:18.278Z,0.30
2023-10-11T20:56:17.118Z,0.25
2023-10-11T20:58:22.485Z,0.10
2023-10-11T21:00:22.289Z,0.43
2023-10-11T21:02:20.222Z,0.20
2023-10-11T21:04:18.499Z,0.30
2023-10-11T21:06:18.731Z,0.60
2023-10-11T21:08:16.230Z,0.45
2023-10-11T21:10:14.532Z,0.10
2023-10-11T21:12:14.083Z,3.20
2023-10-11T21:14:12.155Z,18.25
2023-10-11T21:16:10.548Z,14.35
2023-10-11T21:18:10.009Z,7.28
2023-10-11T21:20:11.708Z,5.60
2023-10-11T21:22:11.008Z,7.50
2023-10-11T21:24:09.670Z,1.20
2023-10-11T21:26:09.693Z,1.63
2023-10-11T21:28:06.916Z,0.28
2023-10-11T21:30:05.624Z,0.40
2023-10-11T21:32:08.651Z,0.10
2023-10-11T21:34:07.680Z,0.82
2023-10-11T21:36:08.425Z,0.73
2023-10-11T21:38:06.310Z,0.65
2023-10-11T21:40:07.770Z,0.00
2023-10-11T21:42:06.615Z,0.00
2023-10-11T21:44:04.641Z,0.50
2023-10-11T21:46:05.808Z,0.00
2023-10-11T21:48:07.981Z,0.10
2023-10-11T21:50:07.526Z,0.00
2023-10-11T21:52:05.607Z,0.40
2023-10-11T21:54:03.983Z,0.20
2023-10-11T21:56:01.940Z,0.90
2023-10-11T21:58:00.358Z,0.20
2023-10-11T21:59:57.564Z,0.10
2023-10-11T22:01:57.406Z,0.10
2023-10-11T22:03:59.675Z,0.50
2023-10-11T22:05:56.696Z,0.28
2023-10-11T22:07:59.932Z,0.40
2023-10-11T22:09:57.958Z,0.35
2023-10-11T22:11:54.928Z,0.17
2023-10-11T22:13:57.630Z,0.63
2023-10-11T22:15:56.855Z,0.20
2023-10-11T22:17:56.068Z,0.10
2023-10-11T22:19:55.537Z,6.18
2023-10-11T22:21:53.080Z,23.30
2023-10-11T22:23:51.151Z,10.45
2023-10-11T22:25:50.479Z,9.00
2023-10-11T22:27:48.317Z,2.53
2023-10-11T22:29:47.346Z,1.45
2023-10-11T22:31:47.038Z,1.67
2023-10-11T22:33:45.548Z,1.00
2023-10-11T22:35:45.673Z,0.52
2023-10-11T22:37:42.607Z,0.63
2023-10-11T22:39:40.756Z,0.20
2023-10-11T22:41:38.728Z,0.20
2023-10-11T22:43:35.813Z,0.20
2023-10-11T22:45:34.571Z,0.63
2023-10-11T22:47:32.448Z,0.50
2023-10-11T22:49:30.621Z,0.60
2023-10-11T22:51:30.205Z,9.50
2023-10-11T22:53:27.402Z,16.33
2023-10-11T22:55:25.806Z,12.98
2023-10-11T22:57:22.995Z,21.58
2023-10-11T22:59:23.073Z,4.93
2023-10-11T23:01:20.614Z,1.65
2023-10-11T23:03:19.228Z,0.35
2023-10-11T23:05:18.189Z,1.35
2023-10-11T23:07:17.460Z,1.30
2023-10-11T23:09:20.370Z,0.17
2023-10-11T23:11:19.616Z,0.25
2023-10-11T23:13:18.065Z,0.30
2023-10-11T23:15:18.915Z,0.55
2023-10-11T23:17:16.868Z,0.30
2023-10-11T23:19:21.274Z,0.63
2023-10-11T23:21:22.097Z,0.68
2023-10-11T23:23:30.613Z,0.47
2023-10-11T23:25:28.983Z,1.02
2023-10-11T23:27:29.640Z,0.40
2023-10-11T23:29:27.654Z,0.00
2023-10-11T23:31:30.460Z,0.60
2023-10-11T23:33:34.891Z,0.28
2023-10-11T23:35:37.259Z,0.05
2023-10-11T23:37:35.169Z,0.00
2023-10-11T23:39:37.758Z,0.03
2023-10-11T23:41:45.858Z,0.03
2023-10-11T23:43:47.662Z,0.00
2023-10-11T23:45:53.557Z,0.00
2023-10-11T23:47:52.036Z,0.00
2023-10-11T23:49:50.222Z,0.00
2023-10-11T23:51:51.856Z,0.17
2023-10-11T23:53:50.841Z,0.00
2023-10-11T23:55:55.980Z,0.20
2023-10-11T23:57:53.225Z,0.10
2023-10-11T23:59:51.439Z,0.10
